Latest Weather Observations for Green Cape

IDN60801

Issued at 6:23 pm EST Saturday 9 May 2026 (issued every 10 minutes, with the page automatically refreshed every 10 minutes)

About weather observations | Map of weather stations | Latest weather observations for NSW | Other Formats
Station Details ID: 069137 Name: GREEN CAPE AWS Lat: -37.26 Lon: 150.05 Height: 19.4 m
Data from the previous 72 hours. | See also: Recent months at Green Cape
Date/Time
EST
Temp
°C
App
Temp
°C
Dew
Point
°C
Rel
Hum
%
Delta-T
°C
Wind Press
QNH
hPa
Press
MSL
hPa
Rain since
9am
mm
Dir  Spd
km/h
Gust
km/h
Spd
kts
Gust
kts
09/06:00pm 16.9 13.9 11.8 72 2.8 WSW 19 22 10 12 1024.3 1024.3 0.0
09/05:30pm 16.9 14.2 11.6 71 2.9 WSW 17 20 9 11 1023.9 1023.9 0.0
09/05:00pm 17.1 14.4 11.8 71 2.9 WSW 17 20 9 11 1023.5 1023.5 0.0
09/04:30pm 17.6 15.0 11.9 69 3.1 WSW 17 19 9 10 1023.3 1023.3 0.0
09/04:00pm 18.3 17.8 12.1 67 3.4 WSW 6 17 3 9 1023.2 1023.2 0.0
09/03:30pm 18.4 17.2 11.5 64 3.8 WSW 9 11 5 6 1023.2 1023.2 0.0
09/03:00pm 19.2 19.4 13.2 68 3.4 SW 4 4 2 2 1023.1 1023.1 0.0
09/02:30pm 18.2 17.0 11.5 65 3.7 SSW 9 11 5 6 1023.2 1023.2 0.0
09/02:00pm 19.8 19.3 12.6 63 4.0 SW 7 9 4 5 1023.2 1023.2 0.0
09/01:30pm 18.0 16.3 11.3 65 3.6 WSW 11 15 6 8 1023.3 1023.3 0.0
09/01:00pm 17.8 15.6 10.9 64 3.7 WSW 13 15 7 8 1023.5 1023.5 0.0
09/12:30pm 17.4 15.2 10.8 65 3.5 W 13 17 7 9 1024.0 1024.0 0.0
09/12:00pm 16.6 13.5 10.2 66 3.4 WSW 17 20 9 11 1024.3 1024.3 0.0
09/11:30am 16.2 12.1 10.1 67 3.2 W 22 28 12 15 1024.6 1024.6 0.0
09/11:00am 15.9 10.6 10.0 68 3.1 WSW 28 33 15 18 1024.5 1024.5 0.0
09/10:30am 15.5 9.7 9.6 68 3.1 W 30 37 16 20 1024.7 1024.7 0.0
09/10:00am 15.1 9.1 10.1 72 2.6 W 32 39 17 21 1024.7 1024.7 0.0
09/09:30am 14.4 8.1 9.6 73 2.5 W 33 43 18 23 1024.6 1024.6 0.0
09/09:00am 14.1 7.5 10.1 77 2.1 W 35 44 19 24 1024.6 1024.6 0.0
09/08:30am 13.6 6.3 10.2 80 1.8 W 39 44 21 24 1024.3 1024.3 0.0
09/08:00am 13.5 5.8 10.3 81 1.7 W 41 50 22 27 1024.1 1024.1 0.0
09/07:30am 13.3 6.0 10.1 81 1.7 W 39 50 21 27 1023.8 1023.8 0.0
09/07:00am 13.1 5.3 9.9 81 1.6 W 41 52 22 28 1023.3 1023.3 0.0
09/06:30am 13.1 5.7 9.9 81 1.6 W 39 48 21 26 1023.1 1023.1 0.0
09/06:00am 13.4 6.5 10.2 81 1.7 W 37 46 20 25 1022.7 1022.7 0.0
09/05:30am 13.3 6.7 10.1 81 1.7 W 35 43 19 23 1022.4 1022.4 0.0
09/05:00am 13.4 6.2 10.4 82 1.6 W 39 48 21 26 1022.3 1022.3 0.0
09/04:30am 13.4 6.0 10.0 80 1.8 WSW 39 52 21 28 1022.0 1022.0 0.0
09/04:00am 13.3 6.3 10.1 81 1.6 W 37 46 20 25 1021.9 1021.9 0.0
09/03:30am 13.2 5.9 10.2 82 1.6 W 39 50 21 27 1021.7 1021.7 0.0
09/03:00am 13.2 6.0 10.4 83 1.4 W 39 48 21 26 1021.7 1021.7 0.0
09/02:30am 13.4 6.9 10.4 82 1.6 W 35 50 19 27 1021.6 1021.6 0.0
09/02:00am 13.2 6.7 10.4 83 1.4 W 35 44 19 24 1021.6 1021.6 0.0
09/01:30am 13.3 6.5 10.5 83 1.5 W 37 46 20 25 1021.6 1021.6 0.0
09/01:00am 13.6 5.6 10.6 82 1.6 W 43 50 23 27 1021.4 1021.4 0.0
09/12:30am 13.8 7.5 11.0 83 1.5 W 35 44 19 24 1021.4 1021.4 0.0
09/12:00am 13.7 6.1 10.5 81 1.7 W 41 48 22 26 1020.9 1020.9 0.0
 
Date/Time
EST
Temp
°C
App
Temp
°C
Dew
Point
°C
Rel
Hum
%
Delta-T
°C
Wind Press
QNH
hPa
Press
MSL
hPa
Rain since
9am
mm
Dir  Spd
km/h
Gust
km/h
Spd
kts
Gust
kts
08/11:30pm 14.0 6.9 10.8 81 1.7 W 39 50 21 27 1021.0 1021.0 0.0
08/11:00pm 13.8 6.2 10.4 80 1.8 W 41 50 22 27 1021.1 1021.1 0.0
08/10:30pm 13.9 6.8 10.9 82 1.6 W 39 48 21 26 1021.2 1021.2 0.0
08/10:00pm 13.8 7.1 11.0 83 1.5 W 37 44 20 24 1021.2 1021.2 0.0
08/09:30pm 13.8 7.4 10.8 82 1.6 W 35 43 19 23 1020.8 1020.8 0.0
08/09:00pm 13.9 7.4 10.5 80 1.8 W 35 44 19 24 1020.7 1020.7 0.0
08/08:30pm 14.2 8.4 10.8 80 1.8 W 32 43 17 23 1020.2 1020.2 0.0
08/08:00pm 13.9 8.6 11.4 85 1.3 W 30 37 16 20 1020.0 1020.0 0.0
08/07:30pm 14.3 8.5 10.9 80 1.8 W 32 39 17 21 1019.7 1019.7 0.0
08/07:02pm 14.7 7.0 10.3 75 2.3 WSW 41 65 22 35 1019.3 1019.3 0.0
08/07:00pm 14.8 7.5 10.2 74 2.4 WSW 39 54 21 29 1019.3 1019.3 0.0
08/06:30pm 14.8 7.6 10.4 75 2.3 WSW 39 52 21 28 1018.7 1018.7 0.0
08/06:00pm 14.8 8.0 10.6 76 2.2 W 37 44 20 24 1018.2 1018.2 0.0
08/05:30pm 14.6 8.2 10.6 77 2.1 W 35 43 19 23 1017.7 1017.7 0.0
08/05:12pm 14.9 7.5 9.9 72 2.6 WSW 39 57 21 31 1017.3 1017.3 0.0
08/05:00pm 15.0 5.8 9.4 69 2.9 WSW 48 61 26 33 1016.9 1016.9 0.0
08/04:30pm 15.1 6.3 9.7 70 2.8 WSW 46 59 25 32 1016.4 1016.4 0.0
08/04:03pm 15.2 6.5 10.0 71 2.7 WSW 46 70 25 38 1015.9 1015.9 0.0
08/04:00pm 15.5 7.6 10.7 73 2.5 WSW 43 52 23 28 1016.0 1016.0 0.0
08/03:30pm 15.3 6.5 10.9 75 2.3 WSW 48 57 26 31 1015.3 1015.3 0.0
08/03:00pm 15.2 5.5 10.6 74 2.4 WSW 52 70 28 38 1015.1 1015.1 0.0
08/02:33pm 15.6 5.5 10.4 71 2.7 WSW 54 82 29 44 1014.5 1014.5 0.0
08/02:30pm 15.7 6.4 10.7 72 2.7 WSW 50 67 27 36 1014.6 1014.6 0.0
08/02:00pm 15.1 5.7 10.3 73 2.5 WSW 50 59 27 32 1014.5 1014.5 0.0
08/01:30pm 15.6 5.2 10.6 72 2.6 WSW 56 67 30 36 1014.2 1014.2 0.0
08/01:03pm 15.3 4.3 10.5 73 2.5 WSW 59 78 32 42 1013.7 1013.7 0.0
08/01:00pm 15.6 5.0 10.8 73 2.5 WSW 57 70 31 38 1013.8 1013.8 0.0
08/12:47pm 14.8 4.4 10.8 77 2.1 WSW 56 70 30 38 1013.8 1013.8 0.0
08/12:37pm 14.9 1.8 9.9 72 2.6 WSW 69 91 37 49 1013.7 1013.7 0.0
08/12:31pm 15.3 4.5 9.9 70 2.8 WSW 57 91 31 49 1013.6 1013.6 0.0
08/12:30pm 15.1 4.8 9.5 69 2.9 WSW 54 85 29 46 1013.5 1013.5 0.0
08/12:23pm 15.5 5.5 10.7 73 2.5 WSW 54 72 29 39 1013.9 1013.9 0.0
08/12:00pm 15.4 4.7 10.2 71 2.7 WSW 57 76 31 41 1013.7 1013.7 0.0
08/11:30am 15.5 3.7 10.3 71 2.7 WSW 63 82 34 44 1013.5 1013.5 0.0
08/11:01am 16.1 4.6 10.0 67 3.2 WSW 61 82 33 44 1013.1 1013.1 0.0
08/11:00am 16.1 3.8 10.0 67 3.2 WSW 65 83 35 45 1013.1 1013.1 0.0
08/10:30am 16.2 4.1 9.4 64 3.5 WSW 63 87 34 47 1012.6 1012.6 0.0
08/10:13am 15.7 4.2 10.2 70 2.9 WSW 61 91 33 49 1012.4 1012.4 0.0
08/10:00am 15.1 4.3 9.9 71 2.7 WSW 57 76 31 41 1012.5 1012.5 0.0
08/09:43am 15.5 4.4 10.1 70 2.8 WSW 59 80 32 43 1012.6 1012.6 0.0
08/09:30am 15.5 4.0 10.1 70 2.8 W 61 78 33 42 1012.8 1012.8 0.0
08/09:00am 15.3 4.8 10.3 72 2.6 W 56 74 30 40 1012.7 1012.7 2.8
08/08:34am 15.1 4.1 10.5 74 2.4 W 59 78 32 42 1012.8 1012.8 2.8
08/08:30am 15.0 3.1 10.0 72 2.6 W 63 78 34 42 1012.6 1012.6 2.8
08/08:00am 14.8 3.1 9.4 70 2.8 W 61 87 33 47 1012.2 1012.2 2.8
08/07:30am 15.0 1.9 9.8 71 2.7 W 69 91 37 49 1011.6 1011.6 2.8
08/07:00am 15.2 1.4 9.3 68 3.0 W 72 100 39 54 1010.7 1010.7 2.8
08/06:30am 15.3 2.8 9.4 68 3.0 W 65 85 35 46 1010.6 1010.6 2.8
08/06:00am 15.4 2.8 8.9 65 3.3 W 65 85 35 46 1010.0 1010.0 2.8
08/05:59am 15.4 2.8 8.9 65 3.3 W 65 85 35 46 1010.1 1010.1 2.8
08/05:32am 15.0 5.9 8.5 65 3.3 W 46 67 25 36 1010.4 1010.4 2.8
08/05:30am 15.1 5.7 8.8 66 3.2 W 48 67 26 36 1010.3 1010.3 2.8
08/05:00am 15.1 6.1 8.8 66 3.2 W 46 67 25 36 1010.6 1010.6 2.8
08/04:30am 15.0 5.9 8.5 65 3.3 W 46 65 25 35 1011.0 1011.0 2.8
08/04:00am 14.6 7.8 7.6 63 3.5 WNW 33 52 18 28 1011.4 1011.4 2.8
08/03:46am 14.4 9.3 7.7 64 3.3 WNW 24 46 13 25 1011.3 1011.3 2.8
08/03:30am 13.2 10.3 6.3 63 3.3 NNW 11 22 6 12 1011.6 1011.6 2.8
08/03:00am 12.6 10.0 6.2 65 3.0 NW 9 24 5 13 1012.1 1012.1 2.8
08/02:30am 13.1 6.2 6.5 64 3.2 WNW 32 43 17 23 1012.2 1012.2 2.8
08/02:00am 12.7 5.1 5.8 63 3.2 WNW 35 57 19 31 1012.7 1012.7 2.8
08/01:53am 12.6 4.2 5.8 63 3.2 WNW 39 57 21 31 1012.7 1012.7 2.8
08/01:30am 12.4 3.7 5.8 64 3.1 WNW 41 54 22 29 1012.9 1012.9 2.8
08/01:00am 11.9 4.9 5.8 66 2.8 WNW 32 41 17 22 1013.7 1013.7 2.8
08/12:30am 11.7 4.7 6.0 68 2.7 WNW 32 43 17 23 1014.3 1014.3 2.8
08/12:00am 11.6 4.5 5.7 67 2.7 W 32 44 17 24 1014.7 1014.7 2.8
 
Date/Time
EST
Temp
°C
App
Temp
°C
Dew
Point
°C
Rel
Hum
%
Delta-T
°C
Wind Press
QNH
hPa
Press
MSL
hPa
Rain since
9am
mm
Dir  Spd
km/h
Gust
km/h
Spd
kts
Gust
kts
07/11:30pm 11.5 3.4 5.4 66 2.8 W 37 46 20 25 1015.2 1015.2 2.8
07/11:00pm 11.3 2.8 5.2 66 2.8 W 39 50 21 27 1015.6 1015.6 2.8
07/10:30pm 11.1 2.6 5.2 67 2.7 W 39 48 21 26 1015.9 1015.9 2.8
07/10:00pm 11.2 1.5 5.7 69 2.5 W 46 57 25 31 1016.2 1016.2 2.8
07/09:35pm 11.1 0.3 5.8 70 2.5 W 52 70 28 38 1016.1 1016.1 2.8
07/09:30pm 11.2 0.5 6.3 72 2.3 W 52 69 28 37 1016.1 1016.1 2.8
07/09:00pm 11.2 0.8 6.1 71 2.4 W 50 61 27 33 1015.9 1015.9 2.8
07/08:30pm 10.8 1.0 5.1 68 2.6 W 46 56 25 30 1015.9 1015.9 2.8
07/08:04pm 10.6 2.4 4.9 68 2.6 W 37 56 20 30 1016.1 1016.1 2.8
07/08:00pm 10.6 1.3 4.9 68 2.6 W 43 56 23 30 1016.1 1016.1 2.8
07/07:30pm 10.3 0.5 5.1 70 2.4 W 46 57 25 31 1015.9 1015.9 2.8
07/07:00pm 10.2 0.8 5.4 72 2.2 W 44 57 24 31 1015.8 1015.8 2.8
07/06:30pm 10.2 -1.4 5.6 73 2.1 W 56 69 30 37 1015.5 1015.5 2.8
07/06:00pm 9.8 -2.5 5.0 72 2.2 W 59 78 32 42 1015.2 1015.2 2.8
07/05:30pm 10.3 0.0 4.9 69 2.4 W 48 69 26 37 1015.2 1015.2 2.8
07/05:11pm 10.6 0.7 4.9 68 2.6 W 46 65 25 35 1015.2 1015.2 2.8
07/05:00pm 10.6 -0.8 4.7 67 2.7 W 54 69 29 37 1015.2 1015.2 2.8
07/04:46pm 11.1 0.2 5.6 69 2.5 W 52 72 28 39 1015.3 1015.3 2.8
07/04:30pm 10.9 0.5 5.9 71 2.3 W 50 65 27 35 1015.1 1015.1 2.8
07/04:11pm 10.2 4.1 6.5 78 1.7 WSW 28 46 15 25 1015.3 1015.3 2.8
07/04:00pm 9.6 4.0 7.2 85 1.1 WSW 26 41 14 22 1015.4 1015.4 2.8
07/03:30pm 9.2 0.3 7.8 91 0.7 SW 44 54 24 29 1015.4 1015.4 2.6
07/03:00pm 9.1 -1.3 7.7 91 0.7 SW 52 65 28 35 1014.4 1014.4 2.6
07/02:47pm 8.4 -1.8 7.0 91 0.7 W 50 61 27 33 1014.3 1014.3 2.4
07/02:44pm 8.2 -2.4 6.8 91 0.6 WNW 52 61 28 33 1014.5 1014.5 2.4
07/02:35pm 8.3 -2.3 6.8 90 0.7 WSW 52 76 28 41 1014.5 1014.5 2.0
07/02:31pm 9.0 -0.7 7.5 90 0.7 WSW 48 70 26 38 1014.3 1014.3 1.8
07/02:30pm 8.6 -1.2 6.9 89 0.8 WSW 48 59 26 32 1014.2 1014.2 1.8
07/02:23pm 8.2 -3.5 6.3 88 0.9 WSW 57 72 31 39 1014.2 1014.2 1.6
07/02:13pm 8.8 -4.7 6.8 87 0.9 WSW 67 85 36 46 1014.0 1014.0 1.6
07/02:04pm 9.5 -1.6 6.4 81 1.4 WSW 54 76 29 41 1013.9 1013.9 0.8
07/02:00pm 10.0 -0.5 7.3 83 1.3 WSW 52 63 28 34 1013.9 1013.9 0.8
07/01:30pm 10.8 -1.4 5.6 70 2.4 WSW 59 80 32 43 1013.4 1013.4 0.0
07/01:00pm 11.4 0.2 6.1 70 2.5 W 54 76 29 41 1013.2 1013.2 0.0
07/12:42pm 11.0 -2.0 5.3 68 2.6 W 63 83 34 45 1012.8 1012.8 0.0
07/12:33pm 11.0 0.9 5.7 70 2.5 W 48 83 26 45 1012.4 1012.4 0.0
07/12:31pm 11.2 2.1 6.1 71 2.4 W 43 63 23 34 1012.6 1012.6 0.0
07/12:30pm 11.1 2.4 6.0 71 2.4 W 41 56 22 30 1012.7 1012.7 0.0
07/12:12pm 11.1 1.1 6.0 71 2.4 W 48 69 26 37 1013.1 1013.1 0.0
07/12:00pm 10.3 -2.4 5.1 70 2.4 W 61 76 33 41 1013.0 1013.0 0.0
07/11:30am 11.6 -0.1 5.3 65 2.9 W 56 70 30 38 1013.5 1013.5 0.0
07/11:06am 12.1 0.6 4.3 59 3.5 W 54 72 29 39 1013.0 1013.0 0.0
07/11:00am 12.1 1.1 4.8 61 3.3 W 52 69 28 37 1012.9 1012.9 0.0
07/10:30am 11.7 0.6 4.7 62 3.2 W 52 63 28 34 1012.7 1012.7 0.0
07/10:00am 11.2 0.1 4.4 63 3.1 W 52 69 28 37 1012.8 1012.8 0.0
07/09:30am 11.0 -0.8 4.7 65 2.8 W 56 82 30 44 1012.6 1012.6 0.0
07/09:25am 10.8 -1.2 3.8 62 3.1 W 56 82 30 44 1012.5 1012.5 0.0
07/09:00am 10.9 0.2 4.4 64 2.9 W 50 65 27 35 1013.0 1013.0 0.0
07/08:36am 10.6 1.2 4.7 67 2.7 W 43 61 23 33 1013.2 1013.2 0.0
07/08:30am 10.5 1.1 4.4 66 2.7 W 43 54 23 29 1013.2 1013.2 0.0
07/08:00am 10.3 0.9 4.2 66 2.7 W 43 56 23 30 1012.5 1012.5 0.0
07/07:30am 10.1 0.5 4.5 68 2.5 W 44 54 24 29 1012.4 1012.4 0.0
07/07:00am 9.9 0.4 4.7 70 2.3 W 44 69 24 37 1012.6 1012.6 0.0
07/06:53am 10.3 0.3 4.2 66 2.7 W 46 69 25 37 1012.5 1012.5 0.0
07/06:30am 10.3 0.8 3.8 64 2.9 W 43 52 23 28 1012.3 1012.3 0.0
07/06:00am 10.4 2.6 4.8 68 2.5 W 35 48 19 26 1012.6 1012.6 0.0
07/05:30am 10.3 1.3 4.7 68 2.5 W 41 52 22 28 1012.4 1012.4 0.0
07/05:04am 11.0 0.9 5.7 70 2.5 W 48 69 26 37 1012.0 1012.0 0.0
07/05:00am 10.4 -0.3 4.8 68 2.5 W 50 69 27 37 1012.0 1012.0 0.0
07/04:30am 11.3 1.3 6.2 71 2.4 W 48 61 26 33 1012.1 1012.1 0.0
07/04:00am 11.7 1.2 7.2 74 2.2 WSW 52 63 28 34 1011.6 1011.6 0.0
07/03:30am 12.1 2.6 8.2 77 1.9 WSW 48 63 26 34 1011.4 1011.4 0.0
07/03:00am 13.2 2.4 9.3 77 2.0 WSW 56 69 30 37 1011.4 1011.4 0.0
07/02:50am 13.1 2.1 8.6 74 2.3 WSW 56 69 30 37 1011.6 1011.6 0.0
07/02:31am 14.8 10.6 8.1 64 3.4 W 20 52 11 28 1011.4 1011.4 0.0
07/02:30am 14.7 11.1 8.2 65 3.3 W 17 39 9 21 1011.4 1011.4 0.0
07/02:00am 13.0 10.5 6.4 64 3.2 NNW 9 13 5 7 1011.1 1011.1 0.0
07/01:30am 13.0 11.3 7.7 70 2.6 NW 6 9 3 5 1011.1 1011.1 0.0
07/01:00am 13.6 11.8 8.0 69 2.8 W 7 13 4 7 1011.4 1011.4 0.0
07/12:30am 13.5 11.9 8.8 73 2.4 WSW 7 17 4 9 1011.6 1011.6 0.0
07/12:00am 13.7 11.4 9.0 73 2.4 W 11 15 6 8 1011.7 1011.7 0.0
 
Date/Time
EST
Temp
°C
App
Temp
°C
Dew
Point
°C
Rel
Hum
%
Delta-T
°C
Wind Press
QNH
hPa
Press
MSL
hPa
Rain since
9am
mm
Dir  Spd
km/h
Gust
km/h
Spd
kts
Gust
kts
06/11:30pm 13.4 10.3 10.2 81 1.7 WNW 17 20 9 11 1011.8 1011.8 0.0
06/11:00pm 13.4 9.5 10.8 84 1.4 WNW 22 28 12 15 1011.8 1011.8 0.0
06/10:30pm 13.4 9.8 10.6 83 1.5 WNW 20 24 11 13 1011.7 1011.7 0.0
06/10:00pm 13.9 9.3 11.1 83 1.5 WNW 26 30 14 16 1012.1 1012.1 0.0
06/09:30pm 14.3 11.6 11.6 84 1.4 WNW 17 20 9 11 1012.4 1012.4 0.0
06/09:00pm 14.9 12.3 11.9 82 1.6 W 17 20 9 11 1013.0 1013.0 0.0
06/08:30pm 15.9 14.5 12.3 79 2.0 W 11 17 6 9 1013.1 1013.1 0.0
06/08:00pm 15.8 14.8 12.4 80 1.9 W 9 13 5 7 1013.3 1013.3 0.0
06/07:30pm 16.0 14.7 12.6 80 1.9 W 11 13 6 7 1013.6 1013.6 0.0
06/07:00pm 16.0 14.7 12.4 79 2.0 W 11 13 6 7 1013.7 1013.7 0.0
06/06:30pm 16.3 15.0 12.5 78 2.1 WNW 11 15 6 8 1013.9 1013.9 0.0

Other formats

Comma delimited format used in spreadsheet applications
http://www.bom.gov.au/fwo/IDN60801/IDN60801.94934.axf

JavaScript Object Notation format (JSON) in row-major order
http://www.bom.gov.au/fwo/IDN60801/IDN60801.94934.json

Data quality

Most of these data are generated automatically and are frequently updated. Quality checks on data are not normally performed. It is possible for incorrect values to appear. Refer to information at About Latest Weather Observations and please check the disclaimer before using these data.